Terminal Aerodrome Forecast
Issued by NWS

Current Version | Previous Version | Graphics & Text | Print | Product List | Glossary On
Versions: 1 2 3 4 5 6 7 8 9 10 11 12 13 14 15 16 17
000
FTUS41 KPBZ 250522
TAFMGW
TAF
KMGW 250522Z 2506/2606 10007KT P6SM OVC080
     FM251000 07004KT P6SM OVC030
     FM251500 30003KT P6SM OVC025
     FM251900 31007KT P6SM VCSH OVC015
     FM260000 31009KT P6SM OVC015=

USA.gov is the U.S. government's official web portal to all federal, state and local government web resources and services.